PWSweather.com
Personal Weather Stations
Station Observations
IONTARIO88
Lincoln, ON L0R

Lincoln, ON L0R

Lat: 43.1763563, Lon: -79.4719525

Elevation: 297

Station Type: Davis Vantage Pro 2 Plus

http://www.beamsvillewx.ca

Latest ConditionsUpdated 4:50:02 AM EDT Monday, Aug 29, 2016
Currently Today's Max Today's Min Today's Average
Temperature 66.8°F19.3°C 72.8°F22.7°C 66.8°F19.3°C 69.4°F20.8°C
Dew Point 61.1°F16.2°C 65.9°F18.8°C 61.1°F16.2°C 63.2°F17.3°C
Winds Calm Calm 2.3 mph NNW3.7 kmh NNW - 0.7 mph 1.1 kmh
Wind Gusts -- 4.6 mph7.4 kmh - -
Humidity 82% 85% 77% 81%
Pressure 30.18 in1022.0 mb 30.18 in1022.0 mb 30.16 in1021.3 mb -
Hour Temp Dew Point Humidity Winds Wind Gusts Pressure Precip Precip Rate Daily Precip Total
04:50 AM 66.8°F19.3°C 61.1°F16.2°C 82% Calm Calm -- 30.18 in1022.0 mb - 0.00 in0.0 mm 0.00 in0.0 mm
04:40 AM 67.3°F19.6°C 61.3°F16.3°C 81% Calm Calm -- 30.18 in1022.0 mb - 0.00 in0.0 mm 0.00 in0.0 mm
04:30 AM 67.8°F19.9°C 61.4°F16.3°C 80% Calm Calm -- 30.18 in1022.0 mb - 0.00 in0.0 mm 0.00 in0.0 mm
04:20 AM 68.1°F20.1°C 61.4°F16.3°C 79% Calm Calm 2.3 mph3.7 kmh 30.18 in1022.0 mb - 0.00 in0.0 mm 0.00 in0.0 mm
04:10 AM 68.4°F20.2°C 61.6°F16.4°C 79% 1.2 mph NNW1.9 kmh NNW 3.5 mph5.6 kmh 30.17 in1021.7 mb - 0.00 in0.0 mm 0.00 in0.0 mm
04:00 AM 68.6°F20.3°C 61.8°F16.6°C 79% 2.3 mph NNW3.7 kmh NNW 4.6 mph7.4 kmh 30.17 in1021.7 mb - 0.00 in0.0 mm 0.00 in0.0 mm
03:50 AM 68.7°F20.4°C 61.6°F16.4°C 78% Calm Calm 2.3 mph3.7 kmh 30.17 in1021.7 mb - 0.00 in0.0 mm 0.00 in0.0 mm
03:40 AM 68.9°F20.5°C 61.8°F16.6°C 78% 1.2 mph NNW1.9 kmh NNW 4.6 mph7.4 kmh 30.17 in1021.7 mb - 0.00 in0.0 mm 0.00 in0.0 mm
03:30 AM 69.0°F20.6°C 61.5°F16.4°C 77% 2.3 mph NNW3.7 kmh NNW 4.6 mph7.4 kmh 30.17 in1021.7 mb - 0.00 in0.0 mm 0.00 in0.0 mm
03:20 AM 69.0°F20.6°C 61.5°F16.4°C 77% Calm Calm 2.3 mph3.7 kmh 30.17 in1021.7 mb - 0.00 in0.0 mm 0.00 in0.0 mm
03:10 AM 68.8°F20.4°C 62.0°F16.7°C 79% 1.2 mph N1.9 kmh N 2.3 mph3.7 kmh 30.17 in1021.7 mb - 0.00 in0.0 mm 0.00 in0.0 mm
03:00 AM 68.2°F20.1°C 61.8°F16.6°C 80% 1.2 mph NNW1.9 kmh NNW 3.5 mph5.6 kmh 30.16 in1021.3 mb - 0.00 in0.0 mm 0.00 in0.0 mm
02:50 AM 67.8°F19.9°C 62.5°F16.9°C 83% 1.2 mph NNW1.9 kmh NNW 3.5 mph5.6 kmh 30.16 in1021.3 mb - 0.00 in0.0 mm 0.00 in0.0 mm
02:40 AM 67.9°F19.9°C 62.9°F17.2°C 84% Calm Calm 3.5 mph5.6 kmh 30.16 in1021.3 mb - 0.00 in0.0 mm 0.00 in0.0 mm
02:30 AM 68.0°F20.0°C 63.3°F17.4°C 85% 1.2 mph NW1.9 kmh NW 3.5 mph5.6 kmh 30.16 in1021.3 mb - 0.00 in0.0 mm 0.00 in0.0 mm
02:20 AM 68.1°F20.1°C 63.4°F17.4°C 85% Calm Calm 2.3 mph3.7 kmh 30.16 in1021.3 mb - 0.00 in0.0 mm 0.00 in0.0 mm
02:10 AM 68.4°F20.2°C 63.7°F17.6°C 85% Calm Calm -- 30.16 in1021.3 mb - 0.00 in0.0 mm 0.00 in0.0 mm
02:00 AM 68.9°F20.5°C 63.9°F17.7°C 84% Calm Calm 1.2 mph1.9 kmh 30.17 in1021.7 mb - 0.00 in0.0 mm 0.00 in0.0 mm
01:50 AM 69.3°F20.7°C 63.9°F17.7°C 83% Calm Calm 1.2 mph1.9 kmh 30.17 in1021.7 mb - 0.00 in0.0 mm 0.00 in0.0 mm
01:40 AM 69.7°F20.9°C 64.3°F17.9°C 83% Calm Calm 1.2 mph1.9 kmh 30.17 in1021.7 mb - 0.00 in0.0 mm 0.00 in0.0 mm
01:30 AM 70.1°F21.2°C 64.7°F18.2°C 83% Calm Calm 1.2 mph1.9 kmh 30.17 in1021.7 mb - 0.00 in0.0 mm 0.00 in0.0 mm
01:20 AM 70.4°F21.3°C 64.6°F18.1°C 82% Calm Calm 2.3 mph3.7 kmh 30.17 in1021.7 mb - 0.00 in0.0 mm 0.00 in0.0 mm
01:10 AM 70.7°F21.5°C 64.9°F18.3°C 82% 1.2 mph NW1.9 kmh NW 1.2 mph1.9 kmh 30.17 in1021.7 mb - 0.00 in0.0 mm 0.00 in0.0 mm
01:00 AM 70.8°F21.6°C 65.0°F18.3°C 82% 1.2 mph NW1.9 kmh NW 3.5 mph5.6 kmh 30.17 in1021.7 mb - 0.00 in0.0 mm 0.00 in0.0 mm
12:50 AM 71.1°F21.7°C 64.6°F18.1°C 80% 1.2 mph NW1.9 kmh NW 2.3 mph3.7 kmh 30.17 in1021.7 mb - 0.00 in0.0 mm 0.00 in0.0 mm
12:40 AM 71.6°F22.0°C 64.7°F18.2°C 79% 1.2 mph NW1.9 kmh NW 2.3 mph3.7 kmh 30.17 in1021.7 mb - 0.00 in0.0 mm 0.00 in0.0 mm
12:30 AM 72.1°F22.3°C 65.2°F18.4°C 79% 1.2 mph NW1.9 kmh NW 2.3 mph3.7 kmh 30.17 in1021.7 mb - 0.00 in0.0 mm 0.00 in0.0 mm
12:20 AM 72.2°F22.3°C 65.0°F18.3°C 78% 1.2 mph NW1.9 kmh NW 3.5 mph5.6 kmh 30.17 in1021.7 mb - 0.00 in0.0 mm 0.00 in0.0 mm
12:10 AM 72.6°F22.6°C 65.7°F18.7°C 79% 1.2 mph NW1.9 kmh NW 1.2 mph1.9 kmh 30.17 in1021.7 mb - 0.00 in0.0 mm 0.00 in0.0 mm
12:00 AM 72.8°F22.7°C 65.9°F18.8°C 79% 1.2 mph NW1.9 kmh NW 2.3 mph3.7 kmh 30.17 in1021.7 mb - 0.00 in0.0 mm 0.00 in0.0 mm